Clutch City, Texas
Current Conditions -  °F | °C
As of 4:55 PM on Friday 28 Nov 2014 (Local Time) from KMCJ Reporting Station
Few Clouds Few Clouds  
Wind Chill: 66°   Ceiling: Unl
Heat Index: 66°   Visibility: 10mi
Dew Point: 55°   Wind: 13mph
Humidity: 68%   Direction: 140°SE
Pressure: 30.15"   Gusts: NA
Location:  29.7594°N, 95.363°W
Report Text: KMCJ 282255Z AUTO 14011KT 10SM FEW034 19/13 A3015 RMK AO1
Loading
Personal Weather Stations






























Interactive Weather Map New forecast layout! Learn more

10-Day Weather Forecast

Advertisements
Track Severe Weather on mobile